createdAt,value
2023-02-27T00:00:28.975Z,-1.60
2023-02-27T00:03:02.079Z,-1.60
2023-02-27T00:05:35.053Z,-1.60
2023-02-27T00:08:08.066Z,-1.60
2023-02-27T00:10:41.106Z,-1.60
2023-02-27T00:13:14.076Z,-1.60
2023-02-27T00:15:50.337Z,-1.40
2023-02-27T00:18:23.573Z,-1.50
2023-02-27T00:20:56.576Z,-1.50
2023-02-27T00:23:29.690Z,-1.60
2023-02-27T00:26:02.742Z,-1.70
2023-02-27T00:28:35.802Z,-1.70
2023-02-27T00:31:10.359Z,-1.70
2023-02-27T00:34:01.250Z,-1.80
2023-02-27T00:36:34.248Z,-1.80
2023-02-27T00:39:07.268Z,-1.70
2023-02-27T00:41:40.417Z,-1.60
2023-02-27T00:44:13.393Z,-1.70
2023-02-27T00:46:47.756Z,-1.70
2023-02-27T00:49:20.740Z,-1.80
2023-02-27T00:51:54.198Z,-1.80
2023-02-27T00:54:27.566Z,-1.90
2023-02-27T00:57:00.542Z,-1.80
2023-02-27T00:59:33.552Z,-1.60
2023-02-27T01:02:07.970Z,-1.70
2023-02-27T01:04:41.188Z,-1.70
2023-02-27T01:07:14.451Z,-1.80
2023-02-27T01:09:47.451Z,-1.90
2023-02-27T01:12:20.791Z,-1.90
2023-02-27T01:14:53.838Z,-1.80
2023-02-27T01:17:28.354Z,-1.70
2023-02-27T01:20:01.476Z,-1.80
2023-02-27T01:22:34.572Z,-2.00
2023-02-27T01:25:09.226Z,-1.90
2023-02-27T01:27:42.230Z,-1.80
2023-02-27T01:30:16.750Z,-1.90
2023-02-27T01:32:51.139Z,-1.80
2023-02-27T01:35:24.114Z,-1.80
2023-02-27T01:37:57.170Z,-1.90
2023-02-27T01:40:30.286Z,-1.90
2023-02-27T01:43:03.317Z,-1.80
2023-02-27T01:45:37.354Z,-1.80
2023-02-27T01:48:18.311Z,-1.70
2023-02-27T01:50:54.692Z,-1.70
2023-02-27T01:53:29.997Z,-1.80
2023-02-27T01:56:10.291Z,-1.90
2023-02-27T01:58:44.525Z,-1.60
2023-02-27T02:01:18.664Z,-1.70
2023-02-27T02:04:02.272Z,-1.60
2023-02-27T02:06:39.793Z,-1.50
2023-02-27T02:09:14.244Z,-1.70
2023-02-27T02:11:47.785Z,-1.90
2023-02-27T02:14:21.026Z,-1.70
2023-02-27T02:17:11.061Z,-1.80
2023-02-27T02:20:35.922Z,-1.80
2023-02-27T02:24:05.749Z,-2.00
2023-02-27T02:26:52.363Z,-1.90
2023-02-27T02:30:14.350Z,-2.00
2023-02-27T02:33:20.685Z,-1.90
2023-02-27T02:37:01.508Z,-1.90
2023-02-27T02:39:57.311Z,-2.00
2023-02-27T02:42:38.128Z,-2.00
2023-02-27T02:45:19.424Z,-2.00
2023-02-27T02:48:05.549Z,-2.10
2023-02-27T02:50:46.429Z,-2.10
2023-02-27T02:53:36.736Z,-2.20
2023-02-27T02:56:23.119Z,-2.10
2023-02-27T02:59:02.117Z,-2.10
2023-02-27T03:01:40.611Z,-2.10
2023-02-27T03:04:19.713Z,-2.10
2023-02-27T03:07:00.203Z,-1.90
2023-02-27T03:09:38.324Z,-2.10
2023-02-27T03:12:18.954Z,-2.10
2023-02-27T03:14:57.527Z,-2.10
2023-02-27T03:17:42.058Z,-2.20
2023-02-27T03:20:20.428Z,-1.90
2023-02-27T03:22:58.216Z,-2.10
2023-02-27T03:25:32.488Z,-2.00
2023-02-27T03:28:11.364Z,-1.80
2023-02-27T03:30:51.753Z,-1.90
2023-02-27T03:33:31.609Z,-2.10
2023-02-27T03:36:11.127Z,-2.10
2023-02-27T03:38:50.186Z,-2.00
2023-02-27T03:41:32.572Z,-1.80
2023-02-27T03:44:13.035Z,-2.10
2023-02-27T03:46:46.066Z,-2.20
2023-02-27T03:49:19.199Z,-2.10
2023-02-27T03:51:52.211Z,-2.00
2023-02-27T03:54:31.466Z,-2.10
2023-02-27T03:57:07.849Z,-2.20
2023-02-27T03:59:42.352Z,-2.20
2023-02-27T04:02:16.331Z,-2.30
2023-02-27T04:04:49.399Z,-2.30
2023-02-27T04:07:32.248Z,-2.30
2023-02-27T04:10:24.154Z,-2.40
2023-02-27T04:13:21.856Z,-2.30
2023-02-27T04:16:17.328Z,-2.10
2023-02-27T04:19:07.735Z,-2.20
2023-02-27T04:21:51.116Z,-2.20
2023-02-27T04:24:37.190Z,-2.20
2023-02-27T04:27:21.943Z,-2.20
2023-02-27T04:30:02.243Z,-2.20
2023-02-27T04:32:42.091Z,-2.30
2023-02-27T04:35:21.952Z,-2.20
2023-02-27T04:38:00.730Z,-2.30
2023-02-27T04:40:39.675Z,-2.20
2023-02-27T04:43:15.547Z,-2.10
2023-02-27T04:45:51.661Z,-2.00
2023-02-27T04:48:30.298Z,-2.00
2023-02-27T04:51:11.036Z,-2.10
2023-02-27T04:53:51.269Z,-2.10
2023-02-27T04:56:30.610Z,-2.20
2023-02-27T04:59:08.860Z,-2.30
2023-02-27T05:01:46.477Z,-2.10
2023-02-27T05:04:23.723Z,-2.30
2023-02-27T05:06:57.649Z,-2.30
2023-02-27T05:09:37.837Z,-2.30
2023-02-27T05:12:18.185Z,-2.40
2023-02-27T05:14:57.683Z,-2.30
2023-02-27T05:17:36.300Z,-2.20
2023-02-27T05:20:14.795Z,-2.20
2023-02-27T05:22:53.463Z,-2.30
2023-02-27T05:25:33.045Z,-2.40
2023-02-27T05:28:10.506Z,-2.40
2023-02-27T05:30:54.011Z,-2.50
2023-02-27T05:33:32.486Z,-2.40
2023-02-27T05:36:12.422Z,-2.50
2023-02-27T05:38:50.231Z,-2.50
2023-02-27T05:41:27.633Z,-2.40
2023-02-27T05:44:07.161Z,-2.50
2023-02-27T05:46:45.062Z,-2.40
2023-02-27T05:49:23.987Z,-2.40
2023-02-27T05:52:02.621Z,-2.50
2023-02-27T05:54:43.826Z,-2.40
2023-02-27T05:57:25.184Z,-2.40
2023-02-27T06:00:05.320Z,-2.30
2023-02-27T06:02:38.861Z,-2.30
2023-02-27T06:05:12.796Z,-2.30
2023-02-27T06:07:47.641Z,-2.40
2023-02-27T06:10:23.190Z,-2.40
2023-02-27T06:12:56.142Z,-2.40
2023-02-27T06:15:29.371Z,-2.40
2023-02-27T06:18:02.428Z,-2.20
2023-02-27T06:20:35.492Z,-2.10
2023-02-27T06:23:10.645Z,-2.30
2023-02-27T06:25:43.997Z,-2.30
2023-02-27T06:28:17.129Z,-2.40
2023-02-27T06:30:54.583Z,-2.50
2023-02-27T06:33:28.029Z,-2.50
2023-02-27T06:36:01.021Z,-2.30
2023-02-27T06:38:35.499Z,-2.40
2023-02-27T06:41:08.532Z,-2.40
2023-02-27T06:43:41.642Z,-2.40
2023-02-27T06:46:14.679Z,-2.20
2023-02-27T06:48:47.715Z,-2.10
2023-02-27T06:51:20.680Z,-1.90
2023-02-27T06:53:55.061Z,-1.70
2023-02-27T06:56:28.336Z,-1.60
2023-02-27T06:59:01.538Z,-1.60
2023-02-27T07:01:34.604Z,-1.60
2023-02-27T07:04:07.763Z,-1.30
2023-02-27T07:07:35.108Z,-1.10
2023-02-27T07:09:36.155Z,-0.80
2023-02-27T07:12:10.052Z,-0.60
2023-02-27T07:14:43.224Z,-0.40
2023-02-27T07:17:16.247Z,-0.30
2023-02-27T07:19:49.251Z,-0.20
2023-02-27T07:22:22.259Z,0.10
2023-02-27T07:24:56.716Z,0.20
2023-02-27T07:27:29.744Z,0.00
2023-02-27T07:30:02.802Z,-0.10
2023-02-27T07:32:36.023Z,0.00
2023-02-27T07:35:10.903Z,0.00
2023-02-27T07:37:43.919Z,-0.10
2023-02-27T07:40:19.033Z,0.20
2023-02-27T07:42:53.204Z,0.30
2023-02-27T07:45:26.411Z,0.20
2023-02-27T07:47:59.378Z,0.30
2023-02-27T07:50:32.369Z,0.80
2023-02-27T07:53:07.870Z,0.60
2023-02-27T07:55:42.348Z,1.00
2023-02-27T07:58:15.491Z,1.30
2023-02-27T08:00:48.584Z,1.20
2023-02-27T08:03:21.634Z,0.90
2023-02-27T08:05:54.625Z,0.80
2023-02-27T08:08:28.423Z,0.90
2023-02-27T08:11:02.743Z,0.80
2023-02-27T08:13:59.591Z,1.30
2023-02-27T08:16:30.823Z,1.50
2023-02-27T08:19:04.348Z,1.30
2023-02-27T08:21:37.374Z,1.60
2023-02-27T08:24:10.850Z,1.30
2023-02-27T08:26:45.371Z,1.60
2023-02-27T08:29:18.444Z,1.90
2023-02-27T08:31:51.685Z,1.70
2023-02-27T08:34:25.593Z,2.00
2023-02-27T08:36:59.070Z,2.20
2023-02-27T08:39:32.138Z,1.60
2023-02-27T08:42:07.193Z,1.60
2023-02-27T08:44:40.171Z,1.70
2023-02-27T08:47:13.314Z,1.30
2023-02-27T08:49:46.371Z,1.40
2023-02-27T08:52:19.338Z,1.60
2023-02-27T08:54:52.301Z,1.50
2023-02-27T08:57:26.903Z,1.60
2023-02-27T08:59:59.992Z,1.50
2023-02-27T09:02:33.204Z,1.50
2023-02-27T09:05:07.310Z,1.50
2023-02-27T09:07:40.291Z,1.60
2023-02-27T09:10:13.998Z,1.70
2023-02-27T09:12:49.244Z,2.10
2023-02-27T09:15:22.408Z,2.40
2023-02-27T09:17:58.873Z,2.80
2023-02-27T09:20:32.625Z,2.70
2023-02-27T09:23:05.811Z,2.50
2023-02-27T09:25:39.069Z,2.30
2023-02-27T09:28:13.401Z,2.30
2023-02-27T09:30:46.748Z,2.30
2023-02-27T09:33:19.938Z,2.50
2023-02-27T09:35:52.977Z,2.20
2023-02-27T09:38:26.852Z,2.20
2023-02-27T09:41:01.208Z,2.30
2023-02-27T09:43:41.576Z,2.50
2023-02-27T09:46:19.907Z,2.70
2023-02-27T09:48:56.229Z,2.70
2023-02-27T09:51:30.783Z,2.70
2023-02-27T09:54:05.935Z,3.10
2023-02-27T09:56:47.640Z,2.90
2023-02-27T09:59:36.016Z,2.80
2023-02-27T10:02:31.563Z,2.60
2023-02-27T10:05:18.167Z,2.80
2023-02-27T10:08:00.989Z,3.20
2023-02-27T10:10:42.705Z,3.10
2023-02-27T10:13:35.923Z,3.20
2023-02-27T10:16:15.068Z,3.20
2023-02-27T10:18:57.941Z,3.20
2023-02-27T10:21:36.001Z,3.20
2023-02-27T10:24:27.578Z,3.40
2023-02-27T10:27:05.634Z,3.50
2023-02-27T10:29:40.248Z,3.50
2023-02-27T10:32:21.911Z,3.60
2023-02-27T10:34:59.992Z,3.80
2023-02-27T10:37:33.442Z,3.90
2023-02-27T10:40:08.471Z,3.30
2023-02-27T10:42:41.834Z,3.40
2023-02-27T10:45:16.680Z,3.60
2023-02-27T10:47:51.243Z,3.40
2023-02-27T10:50:28.621Z,3.60
2023-02-27T10:53:04.139Z,3.60
2023-02-27T10:55:39.278Z,3.50
2023-02-27T10:58:20.722Z,3.60
2023-02-27T11:00:57.933Z,3.90
2023-02-27T11:03:39.239Z,3.80
2023-02-27T11:06:22.382Z,3.90
2023-02-27T11:09:20.404Z,3.80
2023-02-27T11:11:54.630Z,3.90
2023-02-27T11:14:31.136Z,3.70
2023-02-27T11:17:04.686Z,3.80
2023-02-27T11:19:40.585Z,4.10
2023-02-27T11:22:18.582Z,4.20
2023-02-27T11:24:53.147Z,4.40
2023-02-27T11:27:29.885Z,4.10
2023-02-27T11:30:07.916Z,3.80
2023-02-27T11:32:45.814Z,3.80
2023-02-27T11:35:25.634Z,3.70
2023-02-27T11:38:02.199Z,3.70
2023-02-27T11:40:40.454Z,3.60
2023-02-27T11:43:20.020Z,3.70
2023-02-27T11:46:04.972Z,3.90
2023-02-27T11:48:52.666Z,3.60
2023-02-27T11:51:44.680Z,3.50
2023-02-27T11:54:34.748Z,3.50
2023-02-27T11:57:22.157Z,3.40
2023-02-27T12:00:02.908Z,3.20
2023-02-27T12:02:47.617Z,3.20
2023-02-27T12:05:26.339Z,3.30
2023-02-27T12:08:05.932Z,3.20
2023-02-27T12:10:47.523Z,3.50
2023-02-27T12:13:26.166Z,3.30
2023-02-27T12:16:04.837Z,3.30
2023-02-27T12:18:45.096Z,3.50
2023-02-27T12:21:22.892Z,3.40
2023-02-27T12:24:04.870Z,3.50
2023-02-27T12:26:40.986Z,3.50
2023-02-27T12:29:22.442Z,3.60
2023-02-27T12:32:03.240Z,3.70
2023-02-27T12:34:42.388Z,3.80
2023-02-27T12:37:23.395Z,3.90
2023-02-27T12:40:01.450Z,3.90
2023-02-27T12:43:12.277Z,3.90
2023-02-27T12:46:21.582Z,3.90
2023-02-27T12:49:13.801Z,3.90
2023-02-27T12:51:57.673Z,3.60
2023-02-27T12:54:50.398Z,3.60
2023-02-27T12:57:46.750Z,3.70
2023-02-27T13:00:21.946Z,3.60
2023-02-27T13:03:06.250Z,3.30
2023-02-27T13:05:47.442Z,3.30
2023-02-27T13:08:39.206Z,3.20
2023-02-27T13:11:26.698Z,3.30
2023-02-27T13:14:05.059Z,3.40
2023-02-27T13:16:43.164Z,3.40
2023-02-27T13:19:19.889Z,3.10
2023-02-27T13:21:57.400Z,3.00
2023-02-27T13:24:31.922Z,3.20
2023-02-27T13:27:10.111Z,3.40
2023-02-27T13:29:49.560Z,3.40
2023-02-27T13:32:41.674Z,3.30
2023-02-27T13:35:36.217Z,3.40
2023-02-27T13:38:35.610Z,3.20
2023-02-27T13:41:48.098Z,3.30
2023-02-27T13:44:53.427Z,3.10
2023-02-27T13:47:48.818Z,2.70
2023-02-27T13:50:53.562Z,3.00
2023-02-27T13:53:28.102Z,3.00
2023-02-27T13:56:20.932Z,3.10
2023-02-27T13:58:55.273Z,3.40
2023-02-27T14:01:31.860Z,3.60
2023-02-27T14:04:08.482Z,3.10
2023-02-27T14:06:47.038Z,2.80
2023-02-27T14:09:22.939Z,3.00
2023-02-27T14:11:59.079Z,3.00
2023-02-27T14:14:46.006Z,2.90
2023-02-27T14:17:44.806Z,3.30
2023-02-27T14:20:52.076Z,3.20
2023-02-27T14:23:27.517Z,3.30
2023-02-27T14:26:15.444Z,3.50
2023-02-27T14:28:55.608Z,3.50
2023-02-27T14:31:33.126Z,3.20
2023-02-27T14:34:09.148Z,3.00
2023-02-27T14:36:46.795Z,3.00
2023-02-27T14:39:23.346Z,2.90
2023-02-27T14:42:33.985Z,2.90
2023-02-27T14:45:15.418Z,2.70
2023-02-27T14:47:48.591Z,2.80
2023-02-27T14:50:32.300Z,2.80
2023-02-27T14:53:07.087Z,3.10
2023-02-27T14:55:40.092Z,3.30
2023-02-27T14:58:19.156Z,3.30
2023-02-27T15:01:04.291Z,3.10
2023-02-27T15:03:43.790Z,3.10
2023-02-27T15:06:21.294Z,2.90
2023-02-27T15:08:57.104Z,2.70
2023-02-27T15:11:30.517Z,2.80
2023-02-27T15:14:06.358Z,2.70
2023-02-27T15:16:40.646Z,2.60
2023-02-27T15:19:20.000Z,2.60
2023-02-27T15:21:58.808Z,2.60
2023-02-27T15:24:47.851Z,2.50
2023-02-27T15:27:24.992Z,2.60
2023-02-27T15:30:00.574Z,2.60
2023-02-27T15:32:37.836Z,2.50
2023-02-27T15:35:18.130Z,2.40
2023-02-27T15:37:57.465Z,2.30
2023-02-27T15:40:34.104Z,2.20
2023-02-27T15:43:07.330Z,2.20
2023-02-27T15:45:42.495Z,2.20
2023-02-27T15:48:16.886Z,2.20
2023-02-27T15:50:54.366Z,2.10
2023-02-27T15:53:30.797Z,2.00
2023-02-27T15:56:08.704Z,1.90
2023-02-27T15:58:49.054Z,2.20
2023-02-27T16:01:24.802Z,2.30
2023-02-27T16:04:01.452Z,2.30
2023-02-27T16:06:37.302Z,2.30
2023-02-27T16:09:23.637Z,2.30
2023-02-27T16:12:22.889Z,2.40
2023-02-27T16:15:30.083Z,2.10
2023-02-27T16:18:07.686Z,1.90
2023-02-27T16:20:44.233Z,1.90
2023-02-27T16:23:23.578Z,2.10
2023-02-27T16:26:30.608Z,2.00
2023-02-27T16:29:06.631Z,1.90
2023-02-27T16:31:45.287Z,1.60
2023-02-27T16:34:44.232Z,1.80
2023-02-27T16:37:22.541Z,1.70
2023-02-27T16:39:55.507Z,1.60
2023-02-27T16:42:29.829Z,1.80
2023-02-27T16:45:02.818Z,1.70
2023-02-27T16:47:35.839Z,1.60
2023-02-27T16:50:17.186Z,1.80
2023-02-27T16:52:50.150Z,1.70
2023-02-27T16:55:23.501Z,1.50
2023-02-27T16:57:57.934Z,1.40
2023-02-27T17:00:31.077Z,1.70
2023-02-27T17:03:04.592Z,1.50
2023-02-27T17:05:37.669Z,1.50
2023-02-27T17:08:12.790Z,1.50
2023-02-27T17:10:45.792Z,1.60
2023-02-27T17:13:20.217Z,1.40
2023-02-27T17:15:53.654Z,1.40
2023-02-27T17:18:26.807Z,1.30
2023-02-27T17:21:01.729Z,1.30
2023-02-27T17:23:35.268Z,1.40
2023-02-27T17:26:08.324Z,1.30
2023-02-27T17:28:42.754Z,1.60
2023-02-27T17:31:20.411Z,1.40
2023-02-27T17:33:54.457Z,1.30
2023-02-27T17:36:27.706Z,1.20
2023-02-27T17:39:01.872Z,1.10
2023-02-27T17:41:35.020Z,1.30
2023-02-27T17:44:13.442Z,1.30
2023-02-27T17:46:46.438Z,1.20
2023-02-27T17:49:19.531Z,1.00
2023-02-27T17:51:52.545Z,0.90
2023-02-27T17:54:25.483Z,1.00
2023-02-27T17:56:58.764Z,1.00
2023-02-27T17:59:33.291Z,0.80
2023-02-27T18:02:06.293Z,0.80
2023-02-27T18:04:39.385Z,0.80
2023-02-27T18:07:12.389Z,0.90
2023-02-27T18:09:46.679Z,0.80
2023-02-27T18:12:19.748Z,0.70
2023-02-27T18:14:54.440Z,0.60
2023-02-27T18:17:27.457Z,0.60
2023-02-27T18:20:00.468Z,0.60
2023-02-27T18:22:33.920Z,0.50
2023-02-27T18:25:08.215Z,0.50
2023-02-27T18:27:41.208Z,0.40
2023-02-27T18:30:16.475Z,0.40
2023-02-27T18:32:49.872Z,0.30
2023-02-27T18:35:23.292Z,0.40
2023-02-27T18:37:56.298Z,0.30
2023-02-27T18:40:29.613Z,0.30
2023-02-27T18:43:02.861Z,0.50
2023-02-27T18:45:38.183Z,0.40
2023-02-27T18:48:11.180Z,0.50
2023-02-27T18:50:44.324Z,0.40
2023-02-27T18:53:18.375Z,0.30
2023-02-27T18:55:51.333Z,0.40
2023-02-27T18:58:24.340Z,0.30
2023-02-27T19:00:59.353Z,0.40
2023-02-27T19:03:33.146Z,0.40
2023-02-27T19:06:06.648Z,0.20
2023-02-27T19:08:39.732Z,0.20
2023-02-27T19:11:21.951Z,0.10
2023-02-27T19:13:55.070Z,0.10
2023-02-27T19:16:30.315Z,0.10
2023-02-27T19:19:05.033Z,0.10
2023-02-27T19:21:39.351Z,0.00
2023-02-27T19:24:14.559Z,0.00
2023-02-27T19:27:05.539Z,-0.10
2023-02-27T19:29:38.640Z,-0.10
2023-02-27T19:32:14.666Z,-0.10
2023-02-27T19:34:47.750Z,-0.10
2023-02-27T19:37:20.711Z,-0.10
2023-02-27T19:39:53.868Z,-0.10
2023-02-27T19:42:27.081Z,-0.10
2023-02-27T19:45:00.217Z,0.00
2023-02-27T19:47:34.689Z,-0.10
2023-02-27T19:50:08.959Z,-0.10
2023-02-27T19:52:41.980Z,-0.10
2023-02-27T19:55:15.053Z,-0.20
2023-02-27T19:57:48.038Z,-0.20
2023-02-27T20:00:22.727Z,-0.20
2023-02-27T20:02:57.306Z,-0.30
2023-02-27T20:05:30.387Z,-0.30
2023-02-27T20:08:03.405Z,-0.30
2023-02-27T20:10:36.414Z,-0.30
2023-02-27T20:13:09.721Z,-0.20
2023-02-27T20:15:42.710Z,-0.20
2023-02-27T20:18:17.039Z,-0.10
2023-02-27T20:20:49.997Z,-0.20
2023-02-27T20:23:23.227Z,-0.20
2023-02-27T20:25:56.398Z,-0.30
2023-02-27T20:28:29.485Z,-0.30
2023-02-27T20:31:03.755Z,-0.40
2023-02-27T20:33:38.386Z,-0.40
2023-02-27T20:36:13.002Z,-0.30
2023-02-27T20:38:46.441Z,-0.40
2023-02-27T20:41:22.505Z,-0.40
2023-02-27T20:43:56.184Z,-0.30
2023-02-27T20:46:31.208Z,-0.30
2023-02-27T20:49:07.120Z,-0.30
2023-02-27T20:51:41.416Z,-0.20
2023-02-27T20:54:20.295Z,-0.20
2023-02-27T20:56:54.434Z,-0.20
2023-02-27T20:59:27.788Z,-0.10
2023-02-27T21:02:02.230Z,-0.10
2023-02-27T21:04:47.037Z,-0.10
2023-02-27T21:07:22.603Z,-0.10
2023-02-27T21:09:55.712Z,-0.10
2023-02-27T21:12:28.792Z,0.10
2023-02-27T21:15:01.777Z,0.10
2023-02-27T21:17:34.772Z,0.10
2023-02-27T21:20:11.385Z,0.00
2023-02-27T21:22:44.380Z,0.00
2023-02-27T21:25:17.493Z,0.00
2023-02-27T21:27:50.608Z,0.00
2023-02-27T21:30:23.731Z,0.00
2023-02-27T21:32:56.912Z,-0.10
2023-02-27T21:35:31.252Z,-0.20
2023-02-27T21:38:05.303Z,-0.20
2023-02-27T21:40:38.262Z,-0.30
2023-02-27T21:43:11.445Z,-0.30
2023-02-27T21:45:47.465Z,-0.40
2023-02-27T21:48:20.493Z,-0.50
2023-02-27T21:50:58.762Z,-0.30
2023-02-27T21:53:32.651Z,-0.40
2023-02-27T21:56:08.211Z,-0.60
2023-02-27T21:58:41.252Z,-0.60
2023-02-27T22:01:16.023Z,-0.40
2023-02-27T22:03:52.771Z,-0.50
2023-02-27T22:06:32.517Z,-0.60
2023-02-27T22:09:07.969Z,-0.70
2023-02-27T22:11:41.766Z,-0.80
2023-02-27T22:14:15.350Z,-0.70
2023-02-27T22:16:48.414Z,-0.80
2023-02-27T22:19:22.598Z,-0.80
2023-02-27T22:21:56.922Z,-0.80
2023-02-27T22:24:29.941Z,-0.80
2023-02-27T22:27:02.893Z,-0.80
2023-02-27T22:29:35.883Z,-0.80
2023-02-27T22:32:08.891Z,-0.80
2023-02-27T22:34:41.964Z,-0.80
2023-02-27T22:37:19.241Z,-0.70
2023-02-27T22:39:52.230Z,-0.80
2023-02-27T22:42:25.413Z,-0.80
2023-02-27T22:44:58.374Z,-0.80
2023-02-27T22:47:31.486Z,-0.90
2023-02-27T22:50:05.122Z,-1.00
2023-02-27T22:52:39.531Z,-0.90
2023-02-27T22:55:12.659Z,-1.00
2023-02-27T22:57:49.892Z,-1.00
2023-02-27T23:00:23.099Z,-1.00
2023-02-27T23:02:56.121Z,-1.00
2023-02-27T23:05:29.116Z,-0.90
2023-02-27T23:08:03.430Z,-0.90
2023-02-27T23:10:36.874Z,-0.90
2023-02-27T23:13:11.012Z,-0.90
2023-02-27T23:15:44.048Z,-1.00
2023-02-27T23:18:17.116Z,-1.10
2023-02-27T23:20:50.147Z,-1.10
2023-02-27T23:23:24.456Z,-1.10
2023-02-27T23:26:01.706Z,-1.10
2023-02-27T23:28:36.855Z,-1.10
2023-02-27T23:31:10.277Z,-1.20
2023-02-27T23:33:43.338Z,-1.20
2023-02-27T23:36:16.827Z,-1.10
2023-02-27T23:38:51.097Z,-1.20
2023-02-27T23:41:24.072Z,-1.10
2023-02-27T23:43:57.148Z,-1.20
2023-02-27T23:46:30.910Z,-1.30
2023-02-27T23:49:04.021Z,-1.30
2023-02-27T23:51:37.276Z,-1.30
2023-02-27T23:54:11.731Z,-1.30
2023-02-27T23:56:47.398Z,-1.30
2023-02-27T23:59:20.417Z,-1.30
